Time;durP1;ratioP1;P1;durP2;ratioP2;P2;SDS_P1;SDS_P2;PMS_P1;PMS_P2;Temp;Humidity;BMP_temperature;BMP_pressure;BME280_temperature;BME280_humidity;BME280_pressure;Samples;Min_cycle;Max_cycle;Signal;HPM_P1;HPM_P2
2021/09/10 00:01:08;;;;;;;7.20;6.50;;;18.00;99.90;;;;;;5031688;28;20506;-70
2021/09/10 00:03:36;;;;;;;7.40;6.70;;;18.00;99.90;;;;;;5031220;28;20557;-71
2021/09/10 00:06:03;;;;;;;7.77;7.07;;;17.90;99.90;;;;;;5030704;28;20488;-70
2021/09/10 00:08:30;;;;;;;7.10;6.50;;;17.80;99.90;;;;;;5031281;28;20897;-70
2021/09/10 00:10:56;;;;;;;6.60;6.07;;;17.80;99.90;;;;;;5031279;28;20534;-70
2021/09/10 00:13:23;;;;;;;10.80;6.87;;;17.70;99.90;;;;;;5031267;28;20948;-70
2021/09/10 00:15:50;;;;;;;8.17;6.60;;;17.70;99.90;;;;;;5031057;28;20822;-70
2021/09/10 00:18:17;;;;;;;7.30;6.60;;;17.60;99.90;;;;;;5031596;28;20487;-70
2021/09/10 00:20:45;;;;;;;6.80;6.10;;;17.60;99.90;;;;;;5031479;28;20468;-70
2021/09/10 00:23:12;;;;;;;7.73;6.30;;;17.60;99.90;;;;;;5031532;28;20463;-70
2021/09/10 00:25:39;;;;;;;7.60;6.77;;;17.60;99.90;;;;;;5031000;28;20516;-70
2021/09/10 00:28:06;;;;;;;9.90;6.60;;;17.50;99.90;;;;;;5031341;28;20507;-70
2021/09/10 00:30:33;;;;;;;8.10;7.33;;;17.50;99.90;;;;;;5031974;28;20462;-70
2021/09/10 00:32:59;;;;;;;7.60;6.37;;;17.50;99.90;;;;;;5128828;22;20497;-68
2021/09/10 00:35:26;;;;;;;7.33;6.60;;;17.50;99.90;;;;;;5072593;28;20451;-68
2021/09/10 00:37:54;;;;;;;8.57;6.40;;;17.50;99.90;;;;;;5071615;28;20474;-68
2021/09/10 00:40:21;;;;;;;7.30;6.60;;;17.50;99.90;;;;;;5070749;28;20458;-68
2021/09/10 00:42:47;;;;;;;7.03;6.40;;;17.50;99.90;;;;;;5073498;28;20458;-68
2021/09/10 00:45:14;;;;;;;7.00;6.50;;;17.50;99.90;;;;;;5073479;28;20456;-68
2021/09/10 00:47:42;;;;;;;8.70;7.60;;;17.50;99.90;;;;;;5072990;28;20486;-68
2021/09/10 00:50:09;;;;;;;8.40;6.60;;;17.60;99.90;;;;;;5073155;28;20462;-68
2021/09/10 00:52:36;;;;;;;9.50;7.10;;;17.60;99.90;;;;;;5073385;28;20469;-68
2021/09/10 00:55:05;;;;;;;6.97;6.37;;;17.50;99.90;;;;;;5072620;28;20455;-68
2021/09/10 00:57:32;;;;;;;7.70;7.00;;;17.50;99.90;;;;;;5072785;28;20497;-68
2021/09/10 00:59:58;;;;;;;7.90;7.10;;;17.50;99.90;;;;;;5073278;28;20462;-68
2021/09/10 01:02:25;;;;;;;6.80;6.10;;;17.50;99.90;;;;;;5073079;28;20990;-68
2021/09/10 01:04:53;;;;;;;9.00;7.77;;;17.50;99.90;;;;;;5073054;28;20473;-68
2021/09/10 01:07:20;;;;;;;6.90;6.23;;;17.50;99.90;;;;;;5072367;28;20486;-68
2021/09/10 01:09:47;;;;;;;8.33;6.80;;;17.50;99.90;;;;;;5073260;28;20469;-68
2021/09/10 01:12:16;;;;;;;6.90;6.30;;;17.50;99.90;;;;;;5072690;28;20466;-68
2021/09/10 01:14:44;;;;;;;7.30;6.70;;;17.50;99.90;;;;;;5073021;28;20808;-68
2021/09/10 01:17:10;;;;;;;7.60;6.90;;;17.50;99.90;;;;;;5072365;28;20826;-68
2021/09/10 01:19:38;;;;;;;11.47;7.10;;;17.50;99.90;;;;;;5072786;28;20466;-68
2021/09/10 01:22:07;;;;;;;8.13;6.47;;;17.50;99.90;;;;;;5072740;28;20548;-68
2021/09/10 01:24:37;;;;;;;7.77;6.80;;;17.50;99.90;;;;;;5072645;28;20834;-68
2021/09/10 01:27:06;;;;;;;8.10;7.30;;;17.50;99.90;;;;;;5071947;28;20494;-68
2021/09/10 01:29:34;;;;;;;7.93;7.20;;;17.50;99.90;;;;;;5072634;28;20459;-68
2021/09/10 01:32:01;;;;;;;8.10;7.13;;;17.50;99.90;;;;;;5072731;28;20481;-68
2021/09/10 01:34:28;;;;;;;7.73;6.83;;;17.50;99.90;;;;;;5072870;28;20537;-68
2021/09/10 01:36:55;;;;;;;7.83;7.10;;;17.50;99.90;;;;;;5071741;28;20479;-68
2021/09/10 01:39:22;;;;;;;7.07;6.40;;;17.50;99.90;;;;;;5072602;28;20469;-68
2021/09/10 01:41:50;;;;;;;7.40;6.70;;;17.50;99.90;;;;;;5072309;28;20462;-68
2021/09/10 01:44:16;;;;;;;6.90;6.20;;;17.40;99.90;;;;;;5072551;28;20817;-68
2021/09/10 01:46:43;;;;;;;7.70;7.00;;;17.40;99.90;;;;;;5071549;28;20509;-68
2021/09/10 01:49:10;;;;;;;8.33;7.53;;;17.30;99.90;;;;;;5072258;28;20477;-68
2021/09/10 01:51:36;;;;;;;8.50;6.97;;;17.30;99.90;;;;;;5072413;28;20462;-68
2021/09/10 01:54:03;;;;;;;7.70;7.00;;;17.20;99.90;;;;;;5071914;28;20466;-69
2021/09/10 01:56:30;;;;;;;9.60;7.27;;;17.20;99.90;;;;;;5071764;28;20492;-68
2021/09/10 01:58:58;;;;;;;7.67;6.97;;;17.20;99.90;;;;;;5071767;28;20482;-68
2021/09/10 02:01:26;;;;;;;10.83;7.60;;;17.20;99.90;;;;;;5072172;28;20458;-68
2021/09/10 02:03:53;;;;;;;7.47;6.77;;;17.20;99.90;;;;;;5071835;28;20465;-69
2021/09/10 02:06:20;;;;;;;7.63;6.93;;;17.20;99.90;;;;;;5071315;28;20482;-68
2021/09/10 02:08:47;;;;;;;8.17;7.37;;;17.20;99.90;;;;;;5071285;28;20482;-68
2021/09/10 02:11:14;;;;;;;7.87;7.07;;;17.30;99.90;;;;;;5071564;28;20466;-68
2021/09/10 02:13:40;;;;;;;7.80;7.10;;;17.30;99.90;;;;;;5071934;28;20465;-68
2021/09/10 02:16:09;;;;;;;7.40;6.70;;;17.30;99.90;;;;;;5070963;28;20470;-68
2021/09/10 02:18:36;;;;;;;7.77;7.00;;;17.40;99.90;;;;;;5071808;28;20851;-68
2021/09/10 02:21:02;;;;;;;7.53;6.77;;;17.40;99.90;;;;;;5071540;28;20968;-68
2021/09/10 02:23:29;;;;;;;7.90;7.10;;;17.40;99.90;;;;;;5071627;28;20454;-68
2021/09/10 02:25:56;;;;;;;8.00;7.30;;;17.40;99.90;;;;;;5071076;28;20469;-68
2021/09/10 02:28:23;;;;;;;9.67;8.00;;;17.40;99.90;;;;;;5071337;28;20489;-68
2021/09/10 02:30:50;;;;;;;8.53;7.50;;;17.50;99.90;;;;;;5071558;28;20462;-68
2021/09/10 02:33:18;;;;;;;7.40;6.80;;;17.50;99.90;;;;;;5071008;28;20473;-68
2021/09/10 02:35:44;;;;;;;7.90;7.20;;;17.40;99.90;;;;;;5071497;28;20462;-68
2021/09/10 02:38:12;;;;;;;7.27;6.47;;;17.40;99.90;;;;;;5070707;28;20471;-68
2021/09/10 02:40:39;;;;;;;7.60;6.90;;;17.40;99.90;;;;;;5071108;28;20461;-68
2021/09/10 02:43:05;;;;;;;8.50;7.40;;;17.30;99.90;;;;;;5071047;28;20462;-68
2021/09/10 02:45:32;;;;;;;7.73;7.03;;;17.40;99.90;;;;;;5071207;28;20922;-68
2021/09/10 02:47:59;;;;;;;8.00;7.17;;;17.40;99.90;;;;;;5070461;28;20498;-68
2021/09/10 02:50:27;;;;;;;7.93;7.10;;;17.40;99.90;;;;;;5071023;28;20463;-68
2021/09/10 02:52:54;;;;;;;8.07;7.37;;;17.40;99.90;;;;;;5071010;28;20463;-68
2021/09/10 02:55:21;;;;;;;8.60;7.37;;;17.40;99.90;;;;;;5071187;28;21124;-68
2021/09/10 02:57:48;;;;;;;7.83;7.03;;;17.40;99.90;;;;;;5070305;28;20475;-68
2021/09/10 03:00:16;;;;;;;7.93;7.23;;;17.40;99.90;;;;;;5070860;28;20466;-68
2021/09/10 03:02:43;;;;;;;8.00;6.83;;;17.40;99.90;;;;;;5070629;28;20462;-68
2021/09/10 03:05:10;;;;;;;7.93;7.13;;;17.50;99.90;;;;;;5070843;28;20462;-68
2021/09/10 03:07:39;;;;;;;7.50;6.83;;;17.50;99.90;;;;;;5070003;28;20498;-68
2021/09/10 03:10:07;;;;;;;8.50;7.80;;;17.40;99.90;;;;;;5070586;28;20455;-68
2021/09/10 03:12:35;;;;;;;8.47;7.67;;;17.50;99.90;;;;;;5070864;28;20465;-68
2021/09/10 03:15:02;;;;;;;7.93;7.23;;;17.50;99.90;;;;;;5070411;28;20493;-68
2021/09/10 03:17:29;;;;;;;8.07;7.27;;;17.50;99.90;;;;;;5070274;28;20479;-69
2021/09/10 03:19:56;;;;;;;8.60;7.80;;;17.50;99.90;;;;;;5070360;28;20462;-68
2021/09/10 03:22:23;;;;;;;8.07;7.37;;;17.60;99.90;;;;;;5070731;28;20459;-68
2021/09/10 03:24:51;;;;;;;7.20;6.60;;;17.50;99.90;;;;;;5070311;28;20821;-68
2021/09/10 03:27:17;;;;;;;8.33;7.43;;;17.50;99.90;;;;;;5070231;28;20865;-68
2021/09/10 03:29:44;;;;;;;8.30;7.50;;;17.50;99.90;;;;;;5070537;28;20958;-68
2021/09/10 03:32:11;;;;;;;8.50;7.70;;;17.50;99.90;;;;;;5070065;28;20474;-68
2021/09/10 03:34:37;;;;;;;7.47;6.70;;;17.50;99.90;;;;;;5070246;28;20455;-68
2021/09/10 03:37:05;;;;;;;8.03;7.23;;;17.50;99.90;;;;;;5068803;28;20463;-68
2021/09/10 03:39:31;;;;;;;9.60;8.73;;;17.50;99.90;;;;;;5069446;28;20481;-69
2021/09/10 03:41:59;;;;;;;8.30;7.53;;;17.40;99.90;;;;;;5068882;28;20462;-69
2021/09/10 03:44:26;;;;;;;7.37;6.77;;;17.40;99.90;;;;;;5069339;28;20459;-69
2021/09/10 03:46:53;;;;;;;8.60;7.90;;;17.40;99.90;;;;;;5068481;28;20624;-69
2021/09/10 03:49:20;;;;;;;8.40;7.70;;;17.50;99.90;;;;;;5069159;28;20457;-69
2021/09/10 03:51:46;;;;;;;8.30;7.60;;;17.40;99.90;;;;;;5069116;28;20458;-68
2021/09/10 03:54:13;;;;;;;8.40;7.60;;;17.40;99.90;;;;;;5068507;28;20458;-69
2021/09/10 03:56:40;;;;;;;8.53;7.60;;;17.30;99.90;;;;;;5068772;28;20849;-69
2021/09/10 03:59:08;;;;;;;9.23;8.40;;;17.30;99.90;;;;;;5069076;28;20458;-69
2021/09/10 04:01:35;;;;;;;9.80;7.60;;;17.30;99.90;;;;;;5069238;28;20455;-68
2021/09/10 04:04:01;;;;;;;9.03;7.90;;;17.30;99.90;;;;;;5068770;28;20492;-69
2021/09/10 04:06:28;;;;;;;9.53;7.53;;;17.20;99.90;;;;;;5068208;28;20451;-69
2021/09/10 04:08:55;;;;;;;8.37;7.53;;;17.20;99.90;;;;;;5069486;28;20471;-69
2021/09/10 04:11:22;;;;;;;9.67;8.77;;;17.10;99.90;;;;;;5069366;28;20969;-69
2021/09/10 04:13:48;;;;;;;8.80;7.93;;;17.00;99.90;;;;;;5069252;28;20455;-69
2021/09/10 04:16:16;;;;;;;9.30;8.40;;;17.00;99.90;;;;;;5068001;28;20466;-69
2021/09/10 04:18:43;;;;;;;10.17;8.67;;;16.90;99.90;;;;;;5068391;28;20473;-69
2021/09/10 04:21:10;;;;;;;8.90;8.10;;;16.80;99.90;;;;;;5066549;28;20458;-68
2021/09/10 04:23:37;;;;;;;9.27;8.27;;;16.80;99.90;;;;;;5069468;28;20458;-69
2021/09/10 04:26:03;;;;;;;9.60;8.60;;;16.80;99.90;;;;;;5069203;28;20466;-69
2021/09/10 04:28:30;;;;;;;8.83;8.00;;;16.70;99.90;;;;;;5068502;28;21009;-69
2021/09/10 04:30:57;;;;;;;9.57;8.67;;;16.70;99.90;;;;;;5070573;28;20459;-68
2021/09/10 04:33:25;;;;;;;8.87;8.07;;;16.60;99.90;;;;;;5071793;28;20486;-69
2021/09/10 04:35:51;;;;;;;9.10;8.13;;;16.50;99.90;;;;;;5073328;28;20834;-69
2021/09/10 04:38:18;;;;;;;9.37;8.40;;;16.50;99.90;;;;;;5073037;28;20477;-69
2021/09/10 04:40:45;;;;;;;8.57;7.77;;;16.50;99.90;;;;;;5073596;28;20459;-69
2021/09/10 04:43:12;;;;;;;9.17;8.27;;;16.40;99.90;;;;;;5073371;28;20469;-69
2021/09/10 04:45:39;;;;;;;10.00;8.00;;;16.40;99.90;;;;;;5073533;28;20465;-69
2021/09/10 04:48:05;;;;;;;9.60;8.50;;;16.40;99.90;;;;;;5072827;28;20497;-68
2021/09/10 04:50:33;;;;;;;8.43;7.73;;;16.40;99.90;;;;;;5073565;28;20914;-69
2021/09/10 04:53:00;;;;;;;9.87;8.20;;;16.40;99.90;;;;;;5073150;28;20470;-69
2021/09/10 04:55:27;;;;;;;10.47;8.67;;;16.30;99.90;;;;;;5073439;28;20961;-68
2021/09/10 04:57:54;;;;;;;8.90;8.10;;;16.20;99.90;;;;;;5072665;28;20479;-69
2021/09/10 05:00:20;;;;;;;10.20;8.60;;;16.20;99.90;;;;;;5073532;28;20976;-69
2021/09/10 05:02:47;;;;;;;9.40;8.37;;;16.20;99.90;;;;;;5072917;28;20458;-69
2021/09/10 05:05:14;;;;;;;9.23;8.33;;;16.10;99.90;;;;;;5073112;28;20476;-69
2021/09/10 05:07:42;;;;;;;9.20;8.20;;;16.10;99.90;;;;;;5072487;28;20846;-69
2021/09/10 05:10:10;;;;;;;9.67;8.77;;;16.10;99.90;;;;;;5072901;28;20981;-69
2021/09/10 05:12:36;;;;;;;9.83;8.83;;;16.00;99.90;;;;;;5072823;28;20462;-69
2021/09/10 05:15:04;;;;;;;8.73;7.90;;;16.00;99.90;;;;;;5072758;28;20465;-69
2021/09/10 05:17:31;;;;;;;10.63;9.63;;;16.00;99.90;;;;;;5072566;28;20475;-69
2021/09/10 05:20:00;;;;;;;9.90;8.90;;;16.00;99.90;;;;;;5072746;28;20465;-69
2021/09/10 05:22:27;;;;;;;10.03;8.90;;;15.90;99.90;;;;;;5072979;28;20495;-69
2021/09/10 05:24:55;;;;;;;9.23;8.33;;;15.90;99.90;;;;;;5072585;28;20458;-69
2021/09/10 05:27:21;;;;;;;8.97;8.17;;;15.90;99.90;;;;;;5072154;28;20490;-68
2021/09/10 05:29:49;;;;;;;9.63;8.20;;;15.90;99.90;;;;;;5072824;28;20462;-68
2021/09/10 05:32:16;;;;;;;9.00;8.20;;;15.90;99.90;;;;;;5072258;28;20474;-69
2021/09/10 05:34:43;;;;;;;10.53;8.97;;;15.90;99.90;;;;;;5072753;28;20474;-69
2021/09/10 05:37:09;;;;;;;9.97;8.97;;;15.90;99.90;;;;;;5071809;28;20505;-69
2021/09/10 05:39:36;;;;;;;10.10;8.40;;;16.00;99.90;;;;;;5072811;28;20462;-69
2021/09/10 05:42:04;;;;;;;12.57;9.30;;;16.00;99.90;;;;;;5071021;28;20546;-69
2021/09/10 05:44:33;;;;;;;10.10;8.53;;;16.00;99.90;;;;;;5072500;28;20458;-69
2021/09/10 05:46:59;;;;;;;9.73;8.30;;;16.10;99.90;;;;;;5071667;28;20479;-69
2021/09/10 05:49:26;;;;;;;9.33;8.47;;;16.10;99.90;;;;;;5072416;28;20462;-69
2021/09/10 05:51:53;;;;;;;9.50;8.60;;;16.10;99.90;;;;;;5072228;28;20465;-69
2021/09/10 05:54:19;;;;;;;8.93;8.13;;;16.20;99.90;;;;;;5072139;28;20463;-69
2021/09/10 05:56:46;;;;;;;8.47;7.63;;;16.10;99.90;;;;;;5071792;28;20469;-68
2021/09/10 05:59:14;;;;;;;10.30;9.20;;;16.20;99.90;;;;;;5071931;28;21079;-69
2021/09/10 06:01:41;;;;;;;8.20;7.23;;;16.20;99.90;;;;;;5071689;28;20462;-69
2021/09/10 06:04:08;;;;;;;9.53;8.60;;;16.30;99.90;;;;;;5071659;28;20837;-69
2021/09/10 06:06:37;;;;;;;11.03;9.33;;;16.40;99.90;;;;;;5071436;28;20454;-68
2021/09/10 06:09:04;;;;;;;10.67;8.80;;;16.50;99.90;;;;;;5071605;28;20539;-69
2021/09/10 06:11:31;;;;;;;9.33;8.40;;;16.60;99.90;;;;;;5071621;28;20458;-69
2021/09/10 06:13:58;;;;;;;8.97;8.13;;;16.60;99.90;;;;;;5071529;28;20978;-69
2021/09/10 06:16:27;;;;;;;10.33;9.23;;;16.70;99.90;;;;;;5071226;28;20462;-69
2021/09/10 06:18:53;;;;;;;10.00;8.30;;;16.70;99.90;;;;;;5071657;28;20500;-68
2021/09/10 06:21:21;;;;;;;10.60;9.00;;;16.80;99.90;;;;;;5071214;28;20466;-69
2021/09/10 06:23:48;;;;;;;9.53;8.73;;;16.90;99.90;;;;;;5071365;28;20459;-69
2021/09/10 06:26:15;;;;;;;8.83;7.93;;;17.00;99.90;;;;;;5070993;28;20461;-69
2021/09/10 06:28:42;;;;;;;9.37;8.57;;;17.00;99.90;;;;;;5071107;28;20496;-69
2021/09/10 06:31:09;;;;;;;9.60;7.40;;;17.10;99.90;;;;;;5071044;28;20516;-68
2021/09/10 06:33:40;;;;;;;8.40;7.60;;;17.20;99.90;;;;;;5176309;22;20474;-94
2021/09/10 06:36:07;;;;;;;8.30;7.50;;;17.30;99.90;;;;;;5118090;28;20463;-95
2021/09/10 06:38:37;;;;;;;10.30;8.60;;;17.40;99.90;;;;;;5118234;28;20430;-95
2021/09/10 06:41:04;;;;;;;8.23;7.43;;;17.50;99.90;;;;;;5081151;22;20543;-69
2021/09/10 06:43:30;;;;;;;9.50;8.13;;;17.50;99.90;;;;;;5070690;28;20454;-69
2021/09/10 06:45:57;;;;;;;11.13;8.10;;;17.70;99.90;;;;;;5071219;28;20461;-69
2021/09/10 06:48:24;;;;;;;8.00;7.33;;;17.80;99.90;;;;;;5070371;28;21011;-69
2021/09/10 06:50:52;;;;;;;8.37;7.57;;;17.90;99.90;;;;;;5071442;28;20454;-69
2021/09/10 06:53:18;;;;;;;8.33;7.50;;;18.00;99.90;;;;;;5070468;28;21256;-69
2021/09/10 06:55:45;;;;;;;9.63;7.30;;;18.20;99.90;;;;;;5071134;28;20469;-69
2021/09/10 06:58:12;;;;;;;8.00;7.20;;;18.30;99.90;;;;;;5069990;28;20530;-69
2021/09/10 07:00:38;;;;;;;7.97;7.17;;;18.40;99.90;;;;;;5070869;28;20459;-69
2021/09/10 07:03:05;;;;;;;8.60;7.80;;;18.50;99.90;;;;;;5070748;28;20462;-69
2021/09/10 07:05:32;;;;;;;8.20;7.40;;;18.60;99.90;;;;;;5070815;28;20864;-69
2021/09/10 07:08:00;;;;;;;7.50;6.80;;;18.80;99.90;;;;;;5070249;28;20523;-69
2021/09/10 07:10:26;;;;;;;8.10;7.40;;;18.80;99.90;;;;;;5070822;28;20451;-69
2021/09/10 07:12:53;;;;;;;8.00;7.30;;;18.90;99.90;;;;;;5070937;28;21086;-69
2021/09/10 07:15:20;;;;;;;7.97;7.17;;;19.00;99.90;;;;;;5070598;28;20462;-69
2021/09/10 07:17:47;;;;;;;7.53;6.83;;;19.10;99.90;;;;;;5070145;28;20497;-69
2021/09/10 07:20:14;;;;;;;8.97;8.07;;;19.20;99.90;;;;;;5070749;28;20466;-69
2021/09/10 07:22:41;;;;;;;7.57;6.70;;;19.30;99.90;;;;;;5070703;28;20486;-69
2021/09/10 07:25:10;;;;;;;10.23;7.07;;;19.40;99.90;;;;;;5070638;28;20469;-69
2021/09/10 07:27:36;;;;;;;7.43;6.73;;;19.40;99.90;;;;;;5070041;28;20581;-69
2021/09/10 07:30:03;;;;;;;7.70;7.00;;;19.50;99.90;;;;;;5070601;28;20462;-69
2021/09/10 07:32:30;;;;;;;7.33;6.73;;;19.60;99.90;;;;;;5070253;28;20470;-69
2021/09/10 07:34:58;;;;;;;7.93;7.20;;;19.70;99.90;;;;;;5070604;28;20642;-70
2021/09/10 07:37:29;;;;;;;7.17;6.57;;;19.80;99.90;;;;;;5069970;28;20486;-69
2021/09/10 07:39:56;;;;;;;7.47;6.57;;;20.00;99.90;;;;;;5070425;28;20557;-70
2021/09/10 07:42:24;;;;;;;7.53;6.83;;;20.20;99.90;;;;;;5070529;28;20463;-69
2021/09/10 07:44:51;;;;;;;7.43;6.73;;;20.30;99.90;;;;;;5070540;28;20473;-69
2021/09/10 07:47:18;;;;;;;8.20;7.40;;;20.30;99.90;;;;;;5069849;28;20482;-69
2021/09/10 07:49:45;;;;;;;6.60;6.00;;;20.40;99.90;;;;;;5070174;28;20898;-69
2021/09/10 07:52:12;;;;;;;7.73;7.10;;;20.40;99.90;;;;;;5070279;28;20466;-70
2021/09/10 07:54:39;;;;;;;7.03;6.33;;;20.50;99.90;;;;;;5070143;28;20458;-69
2021/09/10 07:57:06;;;;;;;8.07;7.37;;;20.60;99.90;;;;;;5069634;28;20494;-70
2021/09/10 07:59:34;;;;;;;7.27;6.67;;;20.60;99.90;;;;;;5070088;28;21151;-69
2021/09/10 08:02:00;;;;;;;7.33;6.73;;;20.70;99.90;;;;;;5070446;28;20461;-71
2021/09/10 08:04:27;;;;;;;11.07;6.00;;;20.80;99.90;;;;;;5070219;28;20561;-71
2021/09/10 08:06:54;;;;;;;6.80;6.10;;;20.80;99.90;;;;;;5072972;28;20465;-71
2021/09/10 08:09:21;;;;;;;7.53;6.53;;;20.80;99.90;;;;;;5074126;28;20493;-72
2021/09/10 08:11:47;;;;;;;6.80;6.20;;;20.70;99.90;;;;;;5072695;28;20458;-71
2021/09/10 08:14:14;;;;;;;7.40;6.73;;;20.70;99.90;;;;;;5073749;28;20469;-71
2021/09/10 08:16:42;;;;;;;7.93;6.57;;;20.70;99.90;;;;;;5073035;28;20481;-71
2021/09/10 08:19:09;;;;;;;6.63;6.03;;;20.70;99.90;;;;;;5073936;28;20458;-71
2021/09/10 08:21:36;;;;;;;7.13;6.53;;;20.70;99.90;;;;;;5074045;28;20463;-71
2021/09/10 08:24:02;;;;;;;7.10;6.43;;;20.70;99.90;;;;;;5073873;28;20483;-71
2021/09/10 08:26:29;;;;;;;7.87;7.10;;;20.70;99.90;;;;;;5073854;28;20462;-71
2021/09/10 08:28:56;;;;;;;7.10;6.47;;;20.70;99.90;;;;;;5073688;28;20493;-71
2021/09/10 08:31:23;;;;;;;7.00;6.40;;;20.70;99.90;;;;;;5074092;28;20591;-71
2021/09/10 08:33:51;;;;;;;7.63;6.80;;;20.70;99.90;;;;;;5073650;28;20465;-71
2021/09/10 08:36:18;;;;;;;7.80;6.03;;;20.80;99.90;;;;;;5073939;28;20465;-70
2021/09/10 08:38:45;;;;;;;8.67;6.53;;;20.80;99.90;;;;;;5073082;28;20580;-71
2021/09/10 08:41:15;;;;;;;6.93;6.23;;;20.80;99.90;;;;;;5073638;28;20485;-71
2021/09/10 08:43:48;;;;;;;7.37;6.67;;;20.80;99.90;;;;;;5073502;28;20469;-71
2021/09/10 08:46:15;;;;;;;6.90;6.30;;;20.80;99.90;;;;;;5073611;28;20816;-71
2021/09/10 08:48:44;;;;;;;7.23;6.63;;;20.90;99.90;;;;;;5072783;28;20486;-71
2021/09/10 08:51:12;;;;;;;7.77;7.07;;;21.10;99.90;;;;;;5073623;28;20494;-71
2021/09/10 08:53:39;;;;;;;7.20;6.60;;;21.30;99.90;;;;;;5073476;28;20999;-71
2021/09/10 08:56:06;;;;;;;8.57;6.13;;;21.60;99.90;;;;;;5073232;28;20474;-71
2021/09/10 08:58:32;;;;;;;7.10;6.40;;;21.80;99.90;;;;;;5072984;28;20474;-71
2021/09/10 09:01:00;;;;;;;6.60;6.00;;;22.10;99.90;;;;;;5073313;28;20527;-71
2021/09/10 09:03:29;;;;;;;7.13;6.50;;;22.30;99.90;;;;;;5073811;28;20461;-71
2021/09/10 09:05:55;;;;;;;11.60;6.47;;;22.60;99.90;;;;;;5073270;28;20873;-71
2021/09/10 09:08:24;;;;;;;7.13;6.43;;;22.70;99.90;;;;;;5072944;28;20514;-71
2021/09/10 09:10:57;;;;;;;7.20;6.50;;;22.80;99.90;;;;;;5073170;28;20950;-71
2021/09/10 09:13:25;;;;;;;6.70;6.10;;;22.90;99.90;;;;;;5073342;28;20457;-71
2021/09/10 09:16:12;;;;;;;6.80;6.20;;;22.90;99.90;;;;;;5072762;28;20498;-71
2021/09/10 09:18:40;;;;;;;6.53;5.93;;;22.90;99.90;;;;;;5072863;28;20841;-71
2021/09/10 09:21:07;;;;;;;7.70;6.53;;;22.90;99.90;;;;;;5072907;28;20466;-72
2021/09/10 09:23:35;;;;;;;8.13;7.23;;;22.90;99.90;;;;;;5072977;28;20469;-71
2021/09/10 09:26:13;;;;;;;6.60;6.10;;;22.80;99.90;;;;;;5072995;28;20466;-71
2021/09/10 09:28:40;;;;;;;6.90;6.20;;;22.70;99.90;;;;;;5072696;28;20482;-72
2021/09/10 09:31:08;;;;;;;6.30;5.80;;;22.60;99.90;;;;;;5072857;28;20836;-71
2021/09/10 09:33:38;;;;;;;6.67;6.17;;;22.60;99.90;;;;;;5072606;28;20516;-72
2021/09/10 09:36:06;;;;;;;6.80;6.27;;;22.60;99.90;;;;;;5072697;28;20463;-72
2021/09/10 09:38:36;;;;;;;7.30;6.60;;;22.70;99.90;;;;;;5072347;28;20994;-71
2021/09/10 09:41:06;;;;;;;6.77;6.17;;;22.70;99.90;;;;;;5072550;28;20493;-72
2021/09/10 09:43:34;;;;;;;7.47;6.87;;;22.60;99.90;;;;;;5072480;28;20974;-71
2021/09/10 09:46:01;;;;;;;7.00;6.40;;;22.50;99.90;;;;;;5072518;28;20467;-71
2021/09/10 09:48:30;;;;;;;7.13;6.53;;;22.50;99.90;;;;;;5072034;28;20494;-72
2021/09/10 09:50:59;;;;;;;6.97;6.37;;;22.50;99.90;;;;;;5072275;28;20470;-71
2021/09/10 09:53:26;;;;;;;6.50;6.00;;;22.70;99.90;;;;;;5072055;28;20462;-71
2021/09/10 09:55:54;;;;;;;7.20;6.60;;;22.90;99.90;;;;;;5071952;28;20470;-71
2021/09/10 09:58:21;;;;;;;7.33;6.27;;;22.90;99.90;;;;;;5071732;28;20493;-71
2021/09/10 10:00:48;;;;;;;7.30;6.60;;;22.90;99.90;;;;;;5072486;28;20494;-71
2021/09/10 10:03:16;;;;;;;7.10;6.50;;;23.00;99.90;;;;;;5072156;28;20463;-71
2021/09/10 10:05:50;;;;;;;8.30;7.53;;;23.20;99.90;;;;;;5072118;28;20459;-71
2021/09/10 10:08:22;;;;;;;7.83;7.03;;;23.40;99.90;;;;;;5071407;28;20488;-71
2021/09/10 10:10:52;;;;;;;9.70;6.43;;;23.40;99.90;;;;;;5072540;28;20454;-71
2021/09/10 10:13:29;;;;;;;6.27;5.77;;;23.50;99.90;;;;;;5072206;28;20459;-71
2021/09/10 10:15:56;;;;;;;7.53;6.70;;;23.50;99.90;;;;;;5071911;28;20888;-72
2021/09/10 10:18:39;;;;;;;7.27;6.57;;;23.60;99.90;;;;;;5071616;28;20475;-71
2021/09/10 10:21:06;;;;;;;7.67;6.97;;;23.80;99.90;;;;;;5071813;28;20553;-70
2021/09/10 10:23:55;;;;;;;7.20;6.50;;;24.00;99.90;;;;;;5072063;28;20819;-71
2021/09/10 10:26:34;;;;;;;6.80;6.23;;;24.30;99.90;;;;;;5071964;28;20560;-71
2021/09/10 10:29:08;;;;;;;6.77;6.03;;;24.40;99.90;;;;;;5070747;28;20857;-71
2021/09/10 10:31:56;;;;;;;6.57;5.97;;;24.30;99.90;;;;;;5071852;28;20462;-71
2021/09/10 10:34:23;;;;;;;6.60;6.00;;;24.20;99.90;;;;;;5071795;28;20810;-71
2021/09/10 10:36:50;;;;;;;7.60;6.93;;;24.20;99.90;;;;;;5071301;28;20458;-70
2021/09/10 10:39:26;;;;;;;6.63;6.00;;;24.30;99.90;;;;;;5071396;28;20477;-71
2021/09/10 10:41:56;;;;;;;6.60;6.10;;;24.60;99.90;;;;;;5071723;28;20454;-70
2021/09/10 10:44:51;;;;;;;6.40;5.80;;;24.80;99.90;;;;;;5070981;28;20831;-70
2021/09/10 10:47:32;;;;;;;6.40;5.80;;;24.90;99.90;;;;;;5070380;28;20474;-71
2021/09/10 10:49:59;;;;;;;6.27;5.67;;;25.10;99.90;;;;;;5070955;28;20509;-71
2021/09/10 10:52:37;;;;;;;6.50;6.00;;;25.10;99.90;;;;;;5070976;28;20458;-71
2021/09/10 10:55:32;;;;;;;6.00;5.50;;;25.00;99.90;;;;;;5070831;28;20470;-71
2021/09/10 10:58:20;;;;;;;6.50;5.80;;;24.90;99.90;;;;;;5070480;28;20489;-71
2021/09/10 11:00:52;;;;;;;6.00;5.47;;;24.80;99.90;;;;;;5070879;28;20458;-71
2021/09/10 11:03:38;;;;;;;7.73;6.60;;;24.90;99.90;;;;;;5070884;28;20474;-71
2021/09/10 11:06:37;;;;;;;6.53;5.93;;;25.20;99.90;;;;;;5070566;28;20465;-72
2021/09/10 11:09:08;;;;;;;6.67;5.97;;;25.40;99.90;;;;;;5070204;28;20482;-71
2021/09/10 11:11:35;;;;;;;6.73;6.20;;;25.30;99.90;;;;;;5070957;28;20465;-71
2021/09/10 11:14:07;;;;;;;7.27;6.13;;;25.30;99.90;;;;;;5070979;28;20468;-71
2021/09/10 11:16:35;;;;;;;6.77;6.07;;;25.40;99.90;;;;;;5070946;28;20466;-72
2021/09/10 11:19:01;;;;;;;7.53;6.80;;;25.30;99.90;;;;;;5070362;28;20458;-71
2021/09/10 11:21:30;;;;;;;7.17;6.57;;;25.20;99.90;;;;;;5071081;28;20463;-72
2021/09/10 11:24:07;;;;;;;6.90;5.73;;;25.30;99.90;;;;;;5070349;28;20465;-71
2021/09/10 11:26:35;;;;;;;6.30;5.80;;;25.40;99.90;;;;;;5070818;28;21114;-71
2021/09/10 11:29:10;;;;;;;6.77;6.10;;;25.60;99.90;;;;;;5069811;28;20525;-71
2021/09/10 11:31:38;;;;;;;6.40;5.90;;;25.70;99.90;;;;;;5070970;28;20511;-71
2021/09/10 11:34:05;;;;;;;6.40;5.90;;;25.80;99.90;;;;;;5070552;28;20465;-71
2021/09/10 11:36:32;;;;;;;6.50;5.90;;;25.80;99.90;;;;;;5070750;28;20466;-72
2021/09/10 11:39:06;;;;;;;7.33;6.73;;;25.50;99.90;;;;;;5070066;28;20489;-71
2021/09/10 11:41:34;;;;;;;7.97;7.17;;;25.20;99.90;;;;;;5070787;28;20466;-72
2021/09/10 11:44:09;;;;;;;7.40;6.80;;;25.10;99.90;;;;;;5070551;28;20467;-72
2021/09/10 11:46:39;;;;;;;7.10;6.47;;;25.10;99.90;;;;;;5070397;28;20848;-72
2021/09/10 11:49:05;;;;;;;7.70;6.30;;;25.00;99.90;;;;;;5069986;28;20494;-71
2021/09/10 11:51:46;;;;;;;8.50;6.90;;;24.90;99.90;;;;;;5070560;28;20455;-71
2021/09/10 11:54:15;;;;;;;6.47;5.97;;;25.00;99.90;;;;;;5070524;28;20468;-71
2021/09/10 11:56:42;;;;;;;7.37;6.67;;;25.10;99.90;;;;;;5070223;28;20468;-71
2021/09/10 11:59:24;;;;;;;6.50;5.90;;;25.10;99.90;;;;;;5069813;28;20482;-71
2021/09/10 12:01:53;;;;;;;7.20;6.60;;;25.00;99.90;;;;;;5070650;28;20568;-72
2021/09/10 12:04:29;;;;;;;7.10;6.40;;;24.80;99.90;;;;;;5070405;28;20496;-71
2021/09/10 12:06:58;;;;;;;7.23;6.60;;;24.80;99.90;;;;;;5069834;28;20462;-70
2021/09/10 12:09:26;;;;;;;7.60;6.30;;;24.70;99.90;;;;;;5086558;28;20470;-71
2021/09/10 12:12:05;;;;;;;7.20;6.50;;;24.60;99.90;;;;;;5089637;28;20496;-71
2021/09/10 12:14:34;;;;;;;7.43;6.83;;;24.60;99.90;;;;;;5086320;28;20458;-71
2021/09/10 12:17:33;;;;;;;8.13;6.63;;;24.60;99.90;;;;;;5088686;28;21000;-70
2021/09/10 12:20:04;;;;;;;6.97;6.37;;;24.60;99.90;;;;;;5043540;28;20979;-71
2021/09/10 12:22:37;;;;;;;7.20;6.50;;;24.80;99.90;;;;;;5089528;28;20528;-71
2021/09/10 12:25:31;;;;;;;8.73;7.03;;;24.90;99.90;;;;;;5083898;28;20453;-70
2021/09/10 12:28:13;;;;;;;7.07;6.37;;;24.90;99.90;;;;;;5087560;28;20514;-71
2021/09/10 12:30:42;;;;;;;6.53;6.03;;;25.00;99.90;;;;;;5088114;28;20474;-71
2021/09/10 12:43:35;;;;;;;8.83;6.70;;;24.60;99.90;;;;;;5046554;22;20498;-67
2021/09/10 12:46:02;;;;;;;6.80;6.27;;;24.40;99.90;;;;;;5058946;28;20499;-67
2021/09/10 12:48:29;;;;;;;6.30;5.80;;;24.30;99.90;;;;;;5048083;28;20486;-68
2021/09/10 12:50:56;;;;;;;8.87;7.00;;;24.20;99.90;;;;;;5048558;28;20821;-67
2021/09/10 12:53:25;;;;;;;7.40;6.13;;;24.00;99.90;;;;;;5052482;28;20462;-67
2021/09/10 12:55:52;;;;;;;6.87;6.27;;;23.90;99.90;;;;;;5051804;28;20456;-68
2021/09/10 12:58:19;;;;;;;7.10;6.50;;;23.80;99.90;;;;;;5051684;28;20487;-68
2021/09/10 13:00:46;;;;;;;6.80;6.20;;;23.70;99.90;;;;;;5052151;28;20902;-67
2021/09/10 13:03:13;;;;;;;8.37;6.27;;;23.60;99.90;;;;;;5051534;28;20965;-68